Time;durP1;ratioP1;P1;durP2;ratioP2;P2;SDS_P1;SDS_P2;PMS_P1;PMS_P2;Temp;Humidity;BMP_temperature;BMP_pressure;BME280_temperature;BME280_humidity;BME280_pressure;Samples;Min_cycle;Max_cycle;Signal;HPM_P1;HPM_P2
2023/09/02 00:01:13;;;;;;;;;;;19.00;99.90;;;;;;5074664;28;20259;-66
2023/09/02 00:03:39;;;;;;;;;;;18.90;99.90;;;;;;5074498;28;19908;-67
2023/09/02 00:06:04;;;;;;;;;;;18.90;99.90;;;;;;5075102;28;19920;-66
2023/09/02 00:08:30;;;;;;;;;;;18.90;99.90;;;;;;5074497;28;19917;-67
2023/09/02 00:10:56;;;;;;;;;;;18.90;99.90;;;;;;5074578;28;20273;-67
2023/09/02 00:13:21;;;;;;;;;;;18.90;99.90;;;;;;5074389;28;19935;-67
2023/09/02 00:15:47;;;;;;;;;;;18.90;99.90;;;;;;5074304;28;19912;-67
2023/09/02 00:18:12;;;;;;;;;;;18.90;99.90;;;;;;5074830;28;19905;-67
2023/09/02 00:20:38;;;;;;;;;;;18.80;99.90;;;;;;5074503;28;19974;-66
2023/09/02 00:23:03;;;;;;;;;;;18.80;99.90;;;;;;5074143;28;19924;-66
2023/09/02 00:25:29;;;;;;;;;;;18.80;99.90;;;;;;5074072;28;20007;-66
2023/09/02 00:27:54;;;;;;;;;;;18.80;99.90;;;;;;5074090;28;19912;-67
2023/09/02 00:30:20;;;;;;;;;;;18.80;99.90;;;;;;5074775;28;20256;-67
2023/09/02 00:32:46;;;;;;;;;;;18.80;99.90;;;;;;5074062;28;19942;-67
2023/09/02 00:35:11;;;;;;;;;;;18.80;99.90;;;;;;5074046;28;19936;-66
2023/09/02 00:37:37;;;;;;;;;;;18.80;99.90;;;;;;5074027;28;19917;-66
2023/09/02 00:40:03;;;;;;;;;;;18.80;99.90;;;;;;5073915;28;20313;-66
2023/09/02 00:42:30;;;;;;;;;;;18.70;99.90;;;;;;5073544;28;19909;-67
2023/09/02 00:44:56;;;;;;;;;;;18.60;99.90;;;;;;5073857;28;19917;-66
2023/09/02 00:47:21;;;;;;;;;;;18.60;99.90;;;;;;5073976;28;19924;-66
2023/09/02 00:49:47;;;;;;;;;;;18.60;99.90;;;;;;5072609;28;20262;-67
2023/09/02 00:52:13;;;;;;;;;;;18.70;99.90;;;;;;5073811;28;19912;-66
2023/09/02 00:54:38;;;;;;;;;;;18.60;99.90;;;;;;5073781;28;19908;-67
2023/09/02 00:57:06;;;;;;;;;;;18.70;99.90;;;;;;5072986;28;19916;-66
2023/09/02 00:59:32;;;;;;;;;;;18.60;99.90;;;;;;5073724;28;19958;-67
2023/09/02 01:01:58;;;;;;;;;;;18.70;99.90;;;;;;5073519;28;19919;-67
2023/09/02 01:04:24;;;;;;;;;;;18.70;99.90;;;;;;5073194;28;19916;-66
2023/09/02 01:06:49;;;;;;;;;;;18.60;99.90;;;;;;5073747;28;19909;-67
2023/09/02 01:09:15;;;;;;;;;;;18.60;99.90;;;;;;5074044;28;19917;-67
2023/09/02 01:11:40;;;;;;;;;;;18.60;99.90;;;;;;5073454;28;20448;-67
2023/09/02 01:14:08;;;;;;;;;;;18.50;99.90;;;;;;5073303;28;19919;-66
2023/09/02 01:16:34;;;;;;;;;;;18.50;99.90;;;;;;5073261;28;19917;-66
2023/09/02 01:18:59;;;;;;;;;;;18.50;99.90;;;;;;5073500;28;19913;-66
2023/09/02 01:21:28;;;;;;;;;;;18.60;99.90;;;;;;5073942;28;19923;-67
2023/09/02 01:24:06;;;;;;;;;;;18.60;99.90;;;;;;5068772;28;19913;-67
2023/09/02 01:26:50;;;;;;;;;;;18.60;99.90;;;;;;5069889;28;20362;-67
2023/09/02 01:29:18;;;;;;;;;;;18.60;99.90;;;;;;5073077;28;20005;-67
2023/09/02 01:31:45;;;;;;;;;;;18.60;99.90;;;;;;5073067;28;19951;-66
2023/09/02 01:34:11;;;;;;;;;;;18.60;99.90;;;;;;5072846;28;19993;-67
2023/09/02 01:36:38;;;;;;;;;;;18.50;99.90;;;;;;5087720;28;19919;-66
2023/09/02 01:39:05;;;;;;;;;;;18.60;99.90;;;;;;5093384;28;19965;-66
2023/09/02 01:41:31;;;;;;;;;;;18.50;99.90;;;;;;5093213;28;19916;-67
2023/09/02 01:43:58;;;;;;;;;;;18.50;99.90;;;;;;5091778;28;19968;-66
2023/09/02 01:46:23;;;;;;;;;;;18.40;99.90;;;;;;5091834;28;19939;-66
2023/09/02 01:48:49;;;;;;;;;;;18.50;99.90;;;;;;5092728;28;19955;-66
2023/09/02 01:51:14;;;;;;;;;;;18.50;99.90;;;;;;5093483;28;19904;-66
2023/09/02 01:53:40;;;;;;;;;;;18.50;99.90;;;;;;5092982;28;19927;-66
2023/09/02 01:56:06;;;;;;;;;;;18.40;99.90;;;;;;5092755;28;19920;-66
2023/09/02 01:58:31;;;;;;;;;;;18.40;99.90;;;;;;5092760;28;19912;-67
2023/09/02 02:00:57;;;;;;;;;;;18.40;99.90;;;;;;5092490;28;20097;-67
2023/09/02 02:03:27;;;;;;;;;;;18.40;99.90;;;;;;5093097;28;19961;-67
2023/09/02 02:05:53;;;;;;;;;;;18.40;99.90;;;;;;5092747;28;19923;-67
2023/09/02 02:08:27;;;;;;;;;;;18.40;99.90;;;;;;5092482;28;19912;-67
2023/09/02 02:10:53;;;;;;;;;;;18.40;99.90;;;;;;5092456;28;19923;-67
2023/09/02 02:13:19;;;;;;;;;;;18.40;99.90;;;;;;5092604;28;19923;-67
2023/09/02 02:15:44;;;;;;;;;;;18.50;99.90;;;;;;5091606;28;19995;-67
2023/09/02 02:18:10;;;;;;;;;;;18.50;99.90;;;;;;5092809;28;20342;-67
2023/09/02 02:20:44;;;;;;;;;;;18.50;99.90;;;;;;5091224;28;19923;-67
2023/09/02 02:23:10;;;;;;;;;;;18.50;99.90;;;;;;5091380;28;19916;-66
2023/09/02 02:25:35;;;;;;;;;;;18.50;99.90;;;;;;5092307;28;20330;-66
2023/09/02 02:28:04;;;;;;;;;;;18.50;99.90;;;;;;5092130;28;19916;-66
2023/09/02 02:30:30;;;;;;;;;;;18.50;99.90;;;;;;5092668;28;20329;-67
2023/09/02 02:32:55;;;;;;;;;;;18.40;99.90;;;;;;5092137;28;20269;-67
2023/09/02 02:35:21;;;;;;;;;;;18.40;99.90;;;;;;5091884;28;20270;-68
2023/09/02 02:37:47;;;;;;;;;;;18.40;99.90;;;;;;5092165;28;20410;-67
2023/09/02 02:40:12;;;;;;;;;;;18.40;99.90;;;;;;5092025;28;20356;-67
2023/09/02 02:42:38;;;;;;;;;;;18.40;99.90;;;;;;5092241;28;19950;-67
2023/09/02 02:45:03;;;;;;;;;;;18.50;99.90;;;;;;5092349;28;19923;-67
2023/09/02 02:47:29;;;;;;;;;;;18.40;99.90;;;;;;5091862;28;20010;-66
2023/09/02 02:49:54;;;;;;;;;;;18.40;99.90;;;;;;5092146;28;20225;-67
2023/09/02 02:52:20;;;;;;;;;;;18.40;99.90;;;;;;5090837;28;20016;-66
2023/09/02 02:54:45;;;;;;;;;;;18.40;99.90;;;;;;5091672;28;19976;-66
2023/09/02 02:57:11;;;;;;;;;;;18.40;99.90;;;;;;5092121;28;19904;-66
2023/09/02 02:59:37;;;;;;;;;;;18.40;99.90;;;;;;5091676;28;19966;-67
2023/09/02 03:02:02;;;;;;;;;;;18.40;99.90;;;;;;5091875;28;20342;-67
2023/09/02 03:04:28;;;;;;;;;;;18.50;99.90;;;;;;5091704;28;20258;-66
2023/09/02 03:06:53;;;;;;;;;;;18.40;99.90;;;;;;5091593;28;19923;-66
2023/09/02 03:09:19;;;;;;;;;;;18.40;99.90;;;;;;5091772;28;20046;-66
2023/09/02 03:11:44;;;;;;;;;;;18.40;99.90;;;;;;5091477;28;19980;-67
2023/09/02 03:14:10;;;;;;;;;;;18.40;99.90;;;;;;5091657;28;19924;-67
2023/09/02 03:16:36;;;;;;;;;;;18.50;99.90;;;;;;5091359;28;19942;-66
2023/09/02 03:19:01;;;;;;;;;;;18.50;99.90;;;;;;5091465;28;19916;-66
2023/09/02 03:21:27;;;;;;;;;;;18.50;99.90;;;;;;5091758;28;19944;-67
2023/09/02 03:23:52;;;;;;;;;;;18.50;99.90;;;;;;5091801;28;20563;-67
2023/09/02 03:26:19;;;;;;;;;;;18.40;99.90;;;;;;5091473;28;19916;-67
2023/09/02 03:28:44;;;;;;;;;;;18.40;99.90;;;;;;5091204;28;19950;-66
2023/09/02 03:31:10;;;;;;;;;;;18.40;99.90;;;;;;5091662;28;19940;-67
2023/09/02 03:33:36;;;;;;;;;;;18.40;99.90;;;;;;5091157;28;20431;-67
2023/09/02 03:36:02;;;;;;;;;;;18.30;99.90;;;;;;5091495;28;20426;-67
2023/09/02 03:38:28;;;;;;;;;;;18.30;99.90;;;;;;5090007;28;20193;-67
2023/09/02 03:40:54;;;;;;;;;;;18.30;99.90;;;;;;5091290;28;20007;-68
2023/09/02 03:43:19;;;;;;;;;;;18.30;99.90;;;;;;5091150;28;19912;-67
2023/09/02 03:45:48;;;;;;;;;;;18.30;99.90;;;;;;5091030;28;20082;-67
2023/09/02 03:48:14;;;;;;;;;;;18.40;99.90;;;;;;5091663;28;19904;-66
2023/09/02 03:51:18;;;;;;;;;;;18.40;99.90;;;;;;5091167;28;20338;-67
2023/09/02 03:53:44;;;;;;;;;;;18.30;99.90;;;;;;5048598;28;19944;-66
2023/09/02 03:56:09;;;;;;;;;;;18.40;99.90;;;;;;5048517;28;19944;-66
2023/09/02 03:58:35;;;;;;;;;;;18.30;99.90;;;;;;5068173;28;19923;-66
2023/09/02 04:01:01;;;;;;;;;;;18.30;99.90;;;;;;5091241;28;20389;-66
2023/09/02 04:03:28;;;;;;;;;;;18.30;99.90;;;;;;5091302;28;20003;-66
2023/09/02 04:05:54;;;;;;;;;;;18.30;99.90;;;;;;5091079;28;19912;-67
2023/09/02 04:08:20;;;;;;;;;;;18.30;99.90;;;;;;5090901;28;20414;-66
2023/09/02 04:10:53;;;;;;;;;;;18.30;99.90;;;;;;5090799;28;20354;-67
2023/09/02 04:13:25;;;;;;;;;;;18.30;99.90;;;;;;5090883;28;19999;-66
2023/09/02 04:15:52;;;;;;;;;;;18.30;99.90;;;;;;5090987;28;19965;-66
2023/09/02 04:18:18;;;;;;;;;;;18.40;99.90;;;;;;5091197;28;20401;-66
2023/09/02 04:20:44;;;;;;;;;;;18.40;99.90;;;;;;5090885;28;20003;-67
2023/09/02 04:23:09;;;;;;;;;;;18.40;99.90;;;;;;5090762;28;19955;-67
2023/09/02 04:25:45;;;;;;;;;;;18.40;99.90;;;;;;5090753;28;20297;-67
2023/09/02 04:28:11;;;;;;;;;;;18.40;99.90;;;;;;5089632;28;20410;-67
2023/09/02 04:30:36;;;;;;;;;;;18.50;99.90;;;;;;5090600;28;20157;-67
2023/09/02 04:33:02;;;;;;;;;;;18.40;99.90;;;;;;5091035;28;19908;-67
2023/09/02 04:35:28;;;;;;;;;;;18.40;99.90;;;;;;5090344;28;19936;-66
2023/09/02 04:37:53;;;;;;;;;;;18.40;99.90;;;;;;5090563;28;19981;-66
2023/09/02 04:40:19;;;;;;;;;;;18.40;99.90;;;;;;5092978;28;19912;-66
2023/09/02 04:42:44;;;;;;;;;;;18.40;99.90;;;;;;5094109;28;20398;-66
2023/09/02 04:45:11;;;;;;;;;;;18.40;99.90;;;;;;5094600;28;19926;-66
2023/09/02 04:47:36;;;;;;;;;;;18.30;99.90;;;;;;5094176;28;19924;-66
2023/09/02 04:50:02;;;;;;;;;;;18.30;99.90;;;;;;5094262;28;19920;-66
2023/09/02 04:52:28;;;;;;;;;;;18.20;99.90;;;;;;5093980;28;20008;-66
2023/09/02 04:54:53;;;;;;;;;;;18.20;99.90;;;;;;5093770;28;19992;-65
2023/09/02 04:57:19;;;;;;;;;;;18.20;99.90;;;;;;5094383;28;19912;-65
2023/09/02 04:59:45;;;;;;;;;;;18.10;99.90;;;;;;5093935;28;19919;-65
2023/09/02 05:02:10;;;;;;;;;;;18.20;99.90;;;;;;5092697;28;19916;-68
2023/09/02 05:04:36;;;;;;;;;;;18.20;99.90;;;;;;5093829;28;19912;-65
2023/09/02 05:07:01;;;;;;;;;;;18.20;99.90;;;;;;5093766;28;19977;-66
2023/09/02 05:09:27;;;;;;;;;;;18.20;99.90;;;;;;5093960;28;19912;-65
2023/09/02 05:11:53;;;;;;;;;;;18.20;99.90;;;;;;5093436;28;19916;-66
2023/09/02 05:14:18;;;;;;;;;;;18.20;99.90;;;;;;5093512;28;19916;-66
2023/09/02 05:16:44;;;;;;;;;;;18.20;99.90;;;;;;5093574;28;19912;-66
2023/09/02 05:19:09;;;;;;;;;;;18.20;99.90;;;;;;5093455;28;19991;-66
2023/09/02 05:21:35;;;;;;;;;;;18.10;99.90;;;;;;5093480;28;20007;-66
2023/09/02 05:24:01;;;;;;;;;;;18.10;99.90;;;;;;5092451;28;19908;-66
2023/09/02 05:26:26;;;;;;;;;;;18.10;99.90;;;;;;5093299;28;19922;-66
2023/09/02 05:28:52;;;;;;;;;;;18.20;99.90;;;;;;5093351;28;20231;-66
2023/09/02 05:31:18;;;;;;;;;;;18.10;99.90;;;;;;5093277;28;19966;-66
2023/09/02 05:33:43;;;;;;;;;;;18.10;99.90;;;;;;5093267;28;20006;-66
2023/09/02 05:36:08;;;;;;;;;;;18.10;99.90;;;;;;5093274;28;19920;-65
2023/09/02 05:38:34;;;;;;;;;;;18.20;99.90;;;;;;5093176;28;19977;-66
2023/09/02 05:41:00;;;;;;;;;;;18.20;99.90;;;;;;5093102;28;20196;-66
2023/09/02 05:43:26;;;;;;;;;;;18.30;99.90;;;;;;5092883;28;20376;-65
2023/09/02 05:45:51;;;;;;;;;;;18.30;99.90;;;;;;5093048;28;19908;-66
2023/09/02 05:48:17;;;;;;;;;;;18.30;99.90;;;;;;5093239;28;20445;-65
2023/09/02 05:50:43;;;;;;;;;;;18.30;99.90;;;;;;5091663;28;19916;-64
2023/09/02 05:53:08;;;;;;;;;;;18.30;99.90;;;;;;5090252;28;19931;-67
2023/09/02 05:55:34;;;;;;;;;;;18.30;99.90;;;;;;5092688;28;20364;-67
2023/09/02 05:57:59;;;;;;;;;;;18.30;99.90;;;;;;5093423;28;19923;-67
2023/09/02 06:00:25;;;;;;;;;;;18.30;99.90;;;;;;5089607;28;20023;-67
2023/09/02 06:02:51;;;;;;;;;;;18.40;99.90;;;;;;5077259;28;20027;-66
2023/09/02 06:05:17;;;;;;;;;;;18.40;99.90;;;;;;5072925;28;19924;-67
2023/09/02 06:07:42;;;;;;;;;;;18.50;99.90;;;;;;5062772;28;19913;-68
2023/09/02 06:10:08;;;;;;;;;;;18.50;99.90;;;;;;5052710;28;19943;-68
2023/09/02 06:12:34;;;;;;;;;;;18.60;99.90;;;;;;5052890;28;19908;-67
2023/09/02 06:15:00;;;;;;;;;;;18.50;99.90;;;;;;5052922;28;20230;-66
2023/09/02 06:17:30;;;;;;;;;;;18.60;99.90;;;;;;5052661;28;19928;-66
2023/09/02 06:19:57;;;;;;;;;;;18.60;99.90;;;;;;5051312;28;19917;-66
2023/09/02 06:22:22;;;;;;;;;;;18.70;99.90;;;;;;5051462;28;19912;-66
2023/09/02 06:24:47;;;;;;;;;;;18.70;99.90;;;;;;5051912;28;19991;-67
2023/09/02 06:27:13;;;;;;;;;;;18.70;99.90;;;;;;5052896;28;19999;-66
2023/09/02 06:29:42;;;;;;;;;;;18.80;99.90;;;;;;5052349;28;20349;-67
2023/09/02 06:32:08;;;;;;;;;;;18.70;99.90;;;;;;5052166;28;19924;-67
2023/09/02 06:34:33;;;;;;;;;;;18.70;99.90;;;;;;5051841;28;19936;-67
2023/09/02 06:36:59;;;;;;;;;;;18.70;99.90;;;;;;5052205;28;19920;-67
2023/09/02 06:39:24;;;;;;;;;;;18.80;99.90;;;;;;5052114;28;19951;-67
2023/09/02 06:41:50;;;;;;;;;;;18.80;99.90;;;;;;5052254;28;19972;-67
2023/09/02 06:44:16;;;;;;;;;;;18.80;99.90;;;;;;5051888;28;19917;-66
2023/09/02 06:46:41;;;;;;;;;;;18.80;99.90;;;;;;5051940;28;19967;-67
2023/09/02 06:49:08;;;;;;;;;;;18.90;99.90;;;;;;5051825;28;19917;-67
2023/09/02 06:51:33;;;;;;;;;;;18.90;99.90;;;;;;5052099;28;19909;-67
2023/09/02 06:53:59;;;;;;;;;;;19.00;99.90;;;;;;5051537;28;19911;-66
2023/09/02 06:56:25;;;;;;;;;;;19.00;99.90;;;;;;5051684;28;20343;-67
2023/09/02 06:58:50;;;;;;;;;;;19.00;99.90;;;;;;5062657;28;19917;-65
2023/09/02 07:01:17;;;;;;;;;;;19.00;99.90;;;;;;5071854;28;19916;-66
2023/09/02 07:03:42;;;;;;;;;;;18.90;99.90;;;;;;5071205;28;19923;-67
2023/09/02 07:06:13;;;;;;;;;;;18.90;99.90;;;;;;5072146;28;19905;-67
2023/09/02 07:08:39;;;;;;;;;;;19.00;99.90;;;;;;5071401;28;19982;-67
2023/09/02 07:11:05;;;;;;;;;;;19.10;99.90;;;;;;5071593;28;19916;-67
2023/09/02 07:13:31;;;;;;;;;;;19.20;99.90;;;;;;5071775;28;19951;-67
2023/09/02 07:16:00;;;;;;;;;;;19.30;99.90;;;;;;5071430;28;20013;-68
2023/09/02 07:18:25;;;;;;;;;;;19.30;99.90;;;;;;5071809;28;20444;-68
2023/09/02 07:20:51;;;;;;;;;;;19.40;99.90;;;;;;5071515;28;19916;-68
2023/09/02 07:23:16;;;;;;;;;;;19.50;99.90;;;;;;5070027;28;19913;-68
2023/09/02 07:25:42;;;;;;;;;;;19.60;99.90;;;;;;5071267;28;19912;-68
2023/09/02 07:28:07;;;;;;;;;;;19.70;99.90;;;;;;5071440;28;19916;-68
2023/09/02 07:30:36;;;;;;;;;;;19.80;99.90;;;;;;5071431;28;19912;-69
2023/09/02 07:33:02;;;;;;;;;;;20.00;99.90;;;;;;5071752;28;19916;-68
2023/09/02 07:35:27;;;;;;;;;;;20.10;99.90;;;;;;5071202;28;19977;-68
2023/09/02 07:37:53;;;;;;;;;;;20.20;99.90;;;;;;5071070;28;19961;-68
2023/09/02 07:40:19;;;;;;;;;;;20.20;99.90;;;;;;5071431;28;19985;-68
2023/09/02 07:42:44;;;;;;;;;;;20.30;99.90;;;;;;5071632;28;20376;-68
2023/09/02 07:45:10;;;;;;;;;;;20.50;99.90;;;;;;5072101;28;19905;-68
2023/09/02 07:47:35;;;;;;;;;;;20.60;99.90;;;;;;5071372;28;19916;-67
2023/09/02 07:50:01;;;;;;;;;;;20.60;99.90;;;;;;5071273;28;19928;-68
2023/09/02 07:52:26;;;;;;;;;;;20.60;99.90;;;;;;5069750;28;19991;-68
2023/09/02 07:54:52;;;;;;;;;;;20.70;99.90;;;;;;5071118;28;19920;-67
2023/09/02 07:57:17;;;;;;;;;;;20.80;99.90;;;;;;5071949;28;20334;-67
2023/09/02 07:59:43;;;;;;;;;;;20.90;99.90;;;;;;5071036;28;20003;-67
2023/09/02 08:02:09;;;;;;;;;;;20.90;99.90;;;;;;5070024;28;19928;-67
2023/09/02 08:04:34;;;;;;;;;;;21.10;99.90;;;;;;5070072;28;19974;-67
2023/09/02 08:07:00;;;;;;;;;;;21.20;99.90;;;;;;5070872;28;20015;-68
2023/09/02 08:09:25;;;;;;;;;;;21.40;99.90;;;;;;5071532;28;20061;-67
2023/09/02 08:11:51;;;;;;;;;;;21.60;99.90;;;;;;5071133;28;20258;-66
2023/09/02 08:14:17;;;;;;;;;;;21.80;99.90;;;;;;5071863;28;19912;-66
2023/09/02 08:16:42;;;;;;;;;;;22.00;99.90;;;;;;5073704;28;19912;-66
2023/09/02 08:19:08;;;;;;;;;;;22.00;99.90;;;;;;5074679;28;19998;-66
2023/09/02 08:21:33;;;;;;;;;;;21.90;99.90;;;;;;5074381;28;19987;-65
2023/09/02 08:23:59;;;;;;;;;;;21.90;99.90;;;;;;5074909;28;19905;-66
2023/09/02 08:26:24;;;;;;;;;;;22.00;99.90;;;;;;5074604;28;19939;-66
2023/09/02 08:28:51;;;;;;;;;;;22.00;99.90;;;;;;5074438;28;19912;-66
2023/09/02 08:31:18;;;;;;;;;;;22.40;99.90;;;;;;5074810;28;19952;-65
2023/09/02 08:33:43;;;;;;;;;;;22.70;99.50;;;;;;5074624;28;19930;-65
2023/09/02 08:36:18;;;;;;;;;;;22.60;99.30;;;;;;5074392;28;19920;-65
2023/09/02 08:38:44;;;;;;;;;;;22.70;99.90;;;;;;5074362;28;19943;-64
2023/09/02 08:41:12;;;;;;;;;;;22.70;99.90;;;;;;5074113;28;19912;-65
2023/09/02 08:43:40;;;;;;;;;;;22.70;99.90;;;;;;5073527;28;20673;-66
2023/09/02 08:46:07;;;;;;;;;;;23.20;99.90;;;;;;5074249;28;20423;-65
2023/09/02 08:48:34;;;;;;;;;;;24.20;98.40;;;;;;5074240;28;20015;-68
2023/09/02 08:51:00;;;;;;;;;;;24.70;98.30;;;;;;5074276;28;20330;-66
2023/09/02 08:53:28;;;;;;;;;;;24.60;96.80;;;;;;5074184;28;19928;-66
2023/09/02 08:55:54;;;;;;;;;;;24.30;96.50;;;;;;5074067;28;19939;-67
2023/09/02 08:58:19;;;;;;;;;;;24.20;97.20;;;;;;5074075;28;19913;-67
2023/09/02 09:00:47;;;;;;;;;;;24.00;97.30;;;;;;5073976;28;19919;-66
2023/09/02 09:03:13;;;;;;;;;;;24.50;97.30;;;;;;5074405;28;20250;-67
2023/09/02 09:05:40;;;;;;;;;;;25.10;96.40;;;;;;5073983;28;19916;-68
2023/09/02 09:08:06;;;;;;;;;;;25.50;95.70;;;;;;5073537;28;19927;-67
2023/09/02 09:10:34;;;;;;;;;;;25.50;95.40;;;;;;5073648;28;19970;-68
2023/09/02 09:13:02;;;;;;;;;;;25.70;95.90;;;;;;5072659;28;19944;-68
2023/09/02 09:15:28;;;;;;;;;;;26.50;95.10;;;;;;5073978;28;19919;-67
2023/09/02 09:17:54;;;;;;;;;;;26.90;94.70;;;;;;5074153;28;19916;-68
2023/09/02 09:20:19;;;;;;;;;;;27.10;93.20;;;;;;5073343;28;20400;-68
2023/09/02 09:22:50;;;;;;;;;;;27.30;93.40;;;;;;5073529;28;20411;-68
2023/09/02 09:25:16;;;;;;;;;;;27.60;92.50;;;;;;5073319;28;20138;-67
2023/09/02 09:27:41;;;;;;;;;;;27.80;92.20;;;;;;5073438;28;19920;-73
2023/09/02 09:30:25;;;;;;;;;;;27.90;91.10;;;;;;5074046;28;19917;-68
2023/09/02 09:32:58;;;;;;;;;;;27.60;91.50;;;;;;5073286;28;19924;-70
2023/09/02 09:35:23;;;;;;;;;;;27.20;92.30;;;;;;5073168;28;19952;-69
2023/09/02 09:37:55;;;;;;;;;;;27.20;92.10;;;;;;5073161;28;19948;-69
2023/09/02 09:40:33;;;;;;;;;;;27.20;91.70;;;;;;5073279;28;19917;-68
2023/09/02 09:42:59;;;;;;;;;;;26.60;91.20;;;;;;5073139;28;19913;-69
2023/09/02 09:45:25;;;;;;;;;;;26.70;92.20;;;;;;5072514;28;20236;-68
2023/09/02 09:47:50;;;;;;;;;;;26.70;91.30;;;;;;5072736;28;19927;-69
2023/09/02 09:50:17;;;;;;;;;;;27.10;90.90;;;;;;5071717;28;19920;-70
2023/09/02 09:53:00;;;;;;;;;;;27.00;91.00;;;;;;5072819;28;20414;-69
2023/09/02 09:55:25;;;;;;;;;;;27.30;91.50;;;;;;5071503;28;19916;-69
2023/09/02 09:57:55;;;;;;;;;;;27.20;91.20;;;;;;5072621;28;20003;-69
2023/09/02 10:00:21;;;;;;;;;;;26.70;91.80;;;;;;5073086;28;19948;-70
2023/09/02 10:02:53;;;;;;;;;;;26.80;92.30;;;;;;5072509;28;19948;-69
2023/09/02 10:05:31;;;;;;;;;;;26.90;91.80;;;;;;5072652;28;19927;-68
2023/09/02 10:08:01;;;;;;;;;;;26.90;92.10;;;;;;5072351;28;19960;-69
2023/09/02 10:10:31;;;;;;;;;;;27.40;91.70;;;;;;5072286;28;19916;-69
2023/09/02 10:12:57;;;;;;;;;;;28.20;90.40;;;;;;5072441;28;20214;-68
2023/09/02 10:15:25;;;;;;;;;;;28.20;89.30;;;;;;5073064;28;20352;-67
2023/09/02 10:18:08;;;;;;;;;;;27.50;89.30;;;;;;5072258;28;20343;-69
2023/09/02 10:20:35;;;;;;;;;;;27.40;90.50;;;;;;5072104;28;19962;-69
2023/09/02 10:23:10;;;;;;;;;;;26.90;90.90;;;;;;5072411;28;20000;-68
2023/09/02 10:25:53;;;;;;;;;;;26.90;91.10;;;;;;5088866;28;20001;-67
2023/09/02 10:28:24;;;;;;;;;;;26.80;91.20;;;;;;5092478;28;19943;-68
2023/09/02 10:30:51;;;;;;;;;;;26.70;91.40;;;;;;5091430;28;19923;-68
2023/09/02 10:33:17;;;;;;;;;;;26.30;91.30;;;;;;5091802;28;19908;-69
2023/09/02 10:35:47;;;;;;;;;;;25.90;91.80;;;;;;5092417;28;20246;-69
2023/09/02 10:38:17;;;;;;;;;;;25.70;92.10;;;;;;5091563;28;19927;-67
2023/09/02 10:40:43;;;;;;;;;;;25.30;92.70;;;;;;5092337;28;19923;-67
2023/09/02 10:43:09;;;;;;;;;;;25.10;92.80;;;;;;5091118;28;19920;-67
2023/09/02 10:45:36;;;;;;;;;;;24.80;93.00;;;;;;5092441;28;20039;-66
2023/09/02 10:48:02;;;;;;;;;;;24.50;93.30;;;;;;5092471;28;20254;-68
2023/09/02 10:50:29;;;;;;;;;;;24.30;94.20;;;;;;5091951;28;19915;-66
2023/09/02 10:52:55;;;;;;;;;;;24.20;94.60;;;;;;5091564;28;19961;-66
2023/09/02 10:55:21;;;;;;;;;;;24.20;94.70;;;;;;5092076;28;19916;-66
2023/09/02 10:57:50;;;;;;;;;;;24.00;94.60;;;;;;5092141;28;20012;-66
2023/09/02 11:00:19;;;;;;;;;;;24.00;94.40;;;;;;5092364;28;20074;-67
2023/09/02 11:02:46;;;;;;;;;;;24.10;94.80;;;;;;5092015;28;19923;-66
2023/09/02 11:05:12;;;;;;;;;;;24.20;94.60;;;;;;5091955;28;20269;-65
2023/09/02 11:07:39;;;;;;;;;;;24.30;94.60;;;;;;5091830;28;20330;-66
2023/09/02 11:10:05;;;;;;;;;;;24.50;94.40;;;;;;5091533;28;20318;-66
2023/09/02 11:12:33;;;;;;;;;;;24.80;94.30;;;;;;5092111;28;19912;-66
2023/09/02 11:15:08;;;;;;;;;;;24.60;93.50;;;;;;5092032;28;20354;-67
2023/09/02 11:17:34;;;;;;;;;;;24.60;93.80;;;;;;5091632;28;19912;-67
2023/09/02 11:20:01;;;;;;;;;;;24.90;93.40;;;;;;5090550;28;20330;-67
2023/09/02 11:22:45;;;;;;;;;;;25.20;93.30;;;;;;5091785;28;19927;-67
2023/09/02 11:25:22;;;;;;;;;;;25.60;92.90;;;;;;5091663;28;20296;-67
2023/09/02 11:27:47;;;;;;;;;;;25.40;92.00;;;;;;5091563;28;19912;-67
2023/09/02 11:30:13;;;;;;;;;;;25.40;91.60;;;;;;5092126;28;19923;-66
2023/09/02 11:32:45;;;;;;;;;;;25.40;92.00;;;;;;5090715;28;19920;-70
2023/09/02 11:35:11;;;;;;;;;;;25.60;91.90;;;;;;5091173;28;19924;-67
2023/09/02 11:37:37;;;;;;;;;;;25.40;92.00;;;;;;5091252;28;19973;-68
2023/09/02 11:40:12;;;;;;;;;;;25.70;92.30;;;;;;5091611;28;20346;-68
2023/09/02 11:42:48;;;;;;;;;;;25.80;91.90;;;;;;5091352;28;20006;-71
2023/09/02 11:45:14;;;;;;;;;;;25.90;91.60;;;;;;5091820;28;19908;-69
2023/09/02 11:47:40;;;;;;;;;;;25.90;91.30;;;;;;5091086;28;20178;-67
2023/09/02 11:50:10;;;;;;;;;;;25.60;91.40;;;;;;5095428;28;19920;-67
2023/09/02 11:52:36;;;;;;;;;;;25.40;91.90;;;;;;5095287;28;20007;-67
2023/09/02 11:55:11;;;;;;;;;;;25.60;92.30;;;;;;5095376;28;19986;-68
2023/09/02 11:57:37;;;;;;;;;;;25.70;92.30;;;;;;5095172;28;20003;-67
2023/09/02 12:00:03;;;;;;;;;;;25.50;91.70;;;;;;5095705;28;20004;-68
2023/09/02 12:02:29;;;;;;;;;;;25.40;91.90;;;;;;5095171;28;19924;-68
2023/09/02 12:04:55;;;;;;;;;;;25.40;92.20;;;;;;5095132;28;19916;-67
2023/09/02 12:07:21;;;;;;;;;;;25.40;92.40;;;;;;5094596;28;19916;-69
2023/09/02 12:09:47;;;;;;;;;;;25.50;92.10;;;;;;5095223;28;19912;-68
2023/09/02 12:12:14;;;;;;;;;;;25.40;92.00;;;;;;5095609;28;19908;-68
2023/09/02 12:14:41;;;;;;;;;;;25.40;92.30;;;;;;5095201;28;19923;-69
2023/09/02 12:17:07;;;;;;;;;;;25.30;92.40;;;;;;5095186;28;20005;-69
2023/09/02 12:19:33;;;;;;;;;;;25.10;92.60;;;;;;5094907;28;19912;-68
2023/09/02 12:21:59;;;;;;;;;;;25.10;92.50;;;;;;5094658;28;19973;-68
2023/09/02 12:24:25;;;;;;;;;;;24.90;92.90;;;;;;5095057;28;19908;-68
2023/09/02 12:26:51;;;;;;;;;;;24.90;93.00;;;;;;5094414;28;19912;-67
2023/09/02 12:29:17;;;;;;;;;;;24.90;93.00;;;;;;5094491;28;19931;-68
2023/09/02 12:32:03;;;;;;;;;;;24.90;92.90;;;;;;5094433;28;19923;-68
2023/09/02 12:34:35;;;;;;;;;;;24.80;92.90;;;;;;5093833;28;19924;-68
2023/09/02 12:37:13;;;;;;;;;;;25.00;93.10;;;;;;5094586;28;20183;-67
2023/09/02 12:39:39;;;;;;;;;;;25.10;93.00;;;;;;5095002;28;20015;-68
2023/09/02 12:42:17;;;;;;;;;;;25.00;92.30;;;;;;5094598;28;20456;-68
2023/09/02 12:44:47;;;;;;;;;;;24.90;92.40;;;;;;5094481;28;19912;-68
2023/09/02 12:47:16;;;;;;;;;;;24.80;92.20;;;;;;5094335;28;19920;-69
2023/09/02 12:49:41;;;;;;;;;;;24.70;92.50;;;;;;5094150;28;19916;-69
2023/09/02 12:52:20;;;;;;;;;;;24.70;92.70;;;;;;5094155;28;19923;-68
2023/09/02 12:54:51;;;;;;;;;;;24.70;92.80;;;;;;5094069;28;19916;-67
2023/09/02 12:57:17;;;;;;;;;;;24.60;92.90;;;;;;5094301;28;19908;-68
2023/09/02 12:59:42;;;;;;;;;;;24.80;93.00;;;;;;5092238;28;19943;-66
2023/09/02 13:02:08;;;;;;;;;;;24.90;92.80;;;;;;5093729;28;19916;-68
2023/09/02 13:04:35;;;;;;;;;;;24.90;92.70;;;;;;5093807;28;19968;-69
2023/09/02 13:07:00;;;;;;;;;;;24.90;92.50;;;;;;5093807;28;19974;-69
2023/09/02 13:09:26;;;;;;;;;;;25.00;92.70;;;;;;5092509;28;19955;-68
2023/09/02 13:11:51;;;;;;;;;;;25.00;91.80;;;;;;5093688;28;19938;-68
2023/09/02 13:14:17;;;;;;;;;;;24.90;91.70;;;;;;5093589;28;20309;-67
2023/09/02 13:16:43;;;;;;;;;;;24.80;91.90;;;;;;5093665;28;20440;-69
2023/09/02 13:19:08;;;;;;;;;;;24.80;92.00;;;;;;5093705;28;20025;-69
2023/09/02 13:21:36;;;;;;;;;;;24.90;92.00;;;;;;5094030;28;19936;-68
2023/09/02 13:24:02;;;;;;;;;;;24.90;91.90;;;;;;5093491;28;20230;-68
2023/09/02 13:26:28;;;;;;;;;;;24.90;92.40;;;;;;5092299;28;19912;-68
2023/09/02 13:28:53;;;;;;;;;;;24.70;92.40;;;;;;5093183;28;19913;-68
2023/09/02 13:31:19;;;;;;;;;;;24.70;92.60;;;;;;5093204;28;19920;-68
2023/09/02 13:33:45;;;;;;;;;;;24.80;92.70;;;;;;5093074;28;20265;-69
2023/09/02 13:36:11;;;;;;;;;;;24.90;92.50;;;;;;5093319;28;19924;-68
2023/09/02 13:38:40;;;;;;;;;;;24.80;92.50;;;;;;5091921;28;19920;-68
2023/09/02 13:41:06;;;;;;;;;;;24.90;92.40;;;;;;5092963;28;19923;-70
2023/09/02 13:43:33;;;;;;;;;;;24.90;92.10;;;;;;5093107;28;19930;-69
2023/09/02 13:46:05;;;;;;;;;;;24.90;92.30;;;;;;5077736;28;19923;-69
2023/09/02 13:48:30;;;;;;;;;;;24.90;92.00;;;;;;5073067;28;19950;-68
2023/09/02 13:50:59;;;;;;;;;;;24.90;92.00;;;;;;5072640;28;19964;-69
2023/09/02 13:53:26;;;;;;;;;;;24.90;92.10;;;;;;5072535;28;19936;-69
2023/09/02 13:55:52;;;;;;;;;;;24.70;92.20;;;;;;5072745;28;20170;-68
2023/09/02 13:58:19;;;;;;;;;;;24.50;93.00;;;;;;5072468;28;19966;-68
2023/09/02 14:00:45;;;;;;;;;;;24.50;93.00;;;;;;5072345;28;20361;-68
2023/09/02 14:03:16;;;;;;;;;;;24.30;92.80;;;;;;5072909;28;20066;-68
2023/09/02 14:05:41;;;;;;;;;;;24.40;92.60;;;;;;5071249;28;19913;-68
2023/09/02 14:08:07;;;;;;;;;;;24.40;92.40;;;;;;5072737;28;19913;-68
2023/09/02 14:10:33;;;;;;;;;;;24.40;92.70;;;;;;5072175;28;19926;-68
2023/09/02 14:13:08;;;;;;;;;;;24.60;93.00;;;;;;5069959;28;20262;-68
2023/09/02 14:15:34;;;;;;;;;;;24.70;93.10;;;;;;5072570;28;19916;-68